Time;durP1;ratioP1;P1;durP2;ratioP2;P2;SDS_P1;SDS_P2;PMS_P1;PMS_P2;Temp;Humidity;BMP_temperature;BMP_pressure;BME280_temperature;BME280_humidity;BME280_pressure;Samples;Min_cycle;Max_cycle;Signal;HPM_P1;HPM_P2
2021/08/19 00:02:12;;;;;;;2.20;1.40;;;18.10;99.90;;;;;;5050877;28;20029;-68
2021/08/19 00:04:38;;;;;;;3.25;1.60;;;18.00;99.90;;;;;;5035705;28;20603;-68
2021/08/19 00:07:04;;;;;;;2.33;1.65;;;18.00;99.90;;;;;;5050647;28;20034;-68
2021/08/19 00:09:31;;;;;;;2.60;1.52;;;18.00;99.90;;;;;;5035655;28;20108;-68
2021/08/19 00:11:58;;;;;;;2.38;1.63;;;18.00;99.90;;;;;;5050880;28;20485;-69
2021/08/19 00:14:24;;;;;;;3.38;1.65;;;17.90;99.90;;;;;;5035751;28;20108;-68
2021/08/19 00:16:50;;;;;;;2.22;1.50;;;18.00;99.90;;;;;;5050974;28;20116;-68
2021/08/19 00:19:16;;;;;;;3.40;1.77;;;18.00;99.90;;;;;;5035746;28;20030;-68
2021/08/19 00:21:42;;;;;;;3.30;1.75;;;18.00;99.90;;;;;;5035249;28;20037;-69
2021/08/19 00:24:08;;;;;;;3.08;1.60;;;18.00;99.90;;;;;;5035621;28;20034;-68
2021/08/19 00:26:34;;;;;;;2.53;1.50;;;18.00;99.90;;;;;;5035351;28;20043;-69
2021/08/19 00:29:00;;;;;;;2.47;1.75;;;18.00;99.90;;;;;;5035152;28;20026;-69
2021/08/19 00:31:26;;;;;;;2.85;1.70;;;18.10;99.90;;;;;;5050556;28;20104;-68
2021/08/19 00:33:52;;;;;;;2.58;1.63;;;18.00;99.90;;;;;;5035275;28;20121;-68
2021/08/19 00:36:19;;;;;;;2.47;1.60;;;17.90;99.90;;;;;;5035055;28;20132;-68
2021/08/19 00:38:47;;;;;;;3.63;1.55;;;17.90;99.90;;;;;;5035123;28;20033;-68
2021/08/19 00:41:14;;;;;;;4.13;1.63;;;17.90;99.90;;;;;;5050435;28;20032;-68
2021/08/19 00:43:40;;;;;;;2.83;1.50;;;18.00;99.90;;;;;;5035038;28;20129;-68
2021/08/19 00:46:31;;;;;;;2.55;1.35;;;18.00;99.90;;;;;;5050289;28;20108;-68
2021/08/19 00:49:03;;;;;;;4.40;1.60;;;17.90;99.90;;;;;;5049987;28;20067;-68
2021/08/19 00:51:48;;;;;;;2.97;1.45;;;17.90;99.90;;;;;;5049884;28;20045;-69
2021/08/19 00:54:28;;;;;;;5.70;1.60;;;18.00;99.90;;;;;;5049168;28;20508;-68
2021/08/19 00:56:59;;;;;;;4.68;1.73;;;17.90;99.90;;;;;;5034522;28;20486;-67
2021/08/19 00:59:36;;;;;;;2.00;1.50;;;18.00;99.90;;;;;;5049949;28;20033;-67
2021/08/19 01:02:03;;;;;;;2.75;1.63;;;18.00;99.90;;;;;;5049653;28;20119;-67
2021/08/19 01:04:35;;;;;;;3.10;1.83;;;17.90;99.90;;;;;;5049936;28;20026;-68
2021/08/19 01:07:02;;;;;;;2.42;1.52;;;17.90;99.90;;;;;;5048407;28;20029;-67
2021/08/19 01:09:29;;;;;;;4.30;2.20;;;17.80;99.90;;;;;;5050034;28;20037;-67
2021/08/19 01:11:55;;;;;;;3.47;2.25;;;17.90;99.90;;;;;;5034362;28;20064;-67
2021/08/19 01:14:21;;;;;;;3.83;2.13;;;17.90;99.90;;;;;;5033425;28;20393;-67
2021/08/19 01:16:49;;;;;;;3.38;1.95;;;17.80;99.90;;;;;;5049324;28;20046;-67
2021/08/19 01:19:21;;;;;;;4.20;2.40;;;17.80;99.90;;;;;;5034259;28;20116;-67
2021/08/19 01:21:52;;;;;;;3.70;2.10;;;17.80;99.90;;;;;;5034178;28;20108;-69
2021/08/19 01:24:18;;;;;;;3.15;2.20;;;17.80;99.90;;;;;;5032761;28;20450;-68
2021/08/19 01:26:46;;;;;;;3.10;2.20;;;17.80;99.90;;;;;;5034274;28;20176;-68
2021/08/19 01:29:12;;;;;;;3.47;2.25;;;17.80;99.90;;;;;;5049147;28;20436;-68
2021/08/19 01:31:38;;;;;;;5.03;2.60;;;17.80;99.90;;;;;;5034078;28;20037;-68
2021/08/19 01:34:04;;;;;;;9.15;2.30;;;17.70;99.90;;;;;;5034123;28;20117;-68
2021/08/19 01:36:30;;;;;;;3.35;2.08;;;17.60;99.90;;;;;;5034181;28;20036;-68
2021/08/19 01:38:56;;;;;;;3.67;2.15;;;17.60;99.90;;;;;;5033788;28;20441;-68
2021/08/19 01:41:23;;;;;;;6.43;2.50;;;17.40;99.90;;;;;;5049392;28;20037;-68
2021/08/19 01:43:50;;;;;;;2.90;2.20;;;17.40;99.90;;;;;;5049349;28;20381;-68
2021/08/19 01:46:18;;;;;;;4.00;2.30;;;17.50;99.90;;;;;;5048740;28;20029;-68
2021/08/19 01:48:46;;;;;;;3.28;2.25;;;17.60;99.90;;;;;;5033670;28;20079;-68
2021/08/19 01:51:22;;;;;;;5.10;2.30;;;17.60;99.90;;;;;;5048674;28;20057;-68
2021/08/19 01:53:49;;;;;;;5.97;2.35;;;17.60;99.90;;;;;;5032345;28;20057;-68
2021/08/19 01:56:24;;;;;;;4.30;2.70;;;17.60;99.90;;;;;;5033724;28;20029;-68
2021/08/19 01:58:53;;;;;;;4.38;2.72;;;17.70;99.90;;;;;;5048806;28;20040;-68
2021/08/19 02:01:21;;;;;;;4.60;2.42;;;17.80;99.90;;;;;;5033653;28;20112;-68
2021/08/19 02:03:48;;;;;;;4.82;2.47;;;17.80;99.90;;;;;;5049012;28;20026;-68
2021/08/19 02:06:14;;;;;;;5.35;2.47;;;17.80;99.90;;;;;;5048347;28;20040;-68
2021/08/19 02:08:40;;;;;;;5.38;3.03;;;17.80;99.90;;;;;;5048649;28;20034;-68
2021/08/19 02:11:06;;;;;;;4.50;3.15;;;17.80;99.90;;;;;;5033231;28;20037;-68
2021/08/19 02:13:32;;;;;;;6.40;2.75;;;17.80;99.90;;;;;;5048611;28;20026;-68
2021/08/19 02:15:59;;;;;;;4.03;2.80;;;17.80;99.90;;;;;;5032957;28;20041;-68
2021/08/19 02:18:25;;;;;;;4.47;3.10;;;17.80;99.90;;;;;;5032199;28;20092;-68
2021/08/19 02:20:50;;;;;;;4.10;2.88;;;17.80;99.90;;;;;;5033413;28;20033;-68
2021/08/19 02:23:16;;;;;;;5.53;2.92;;;17.80;99.90;;;;;;5032892;28;20062;-68
2021/08/19 02:25:42;;;;;;;4.05;3.03;;;17.70;99.90;;;;;;5033048;28;20553;-68
2021/08/19 02:28:08;;;;;;;5.15;3.25;;;17.70;99.90;;;;;;5033064;28;20060;-68
2021/08/19 02:30:33;;;;;;;6.88;3.00;;;17.70;99.90;;;;;;5048623;28;20029;-68
2021/08/19 02:33:01;;;;;;;6.32;3.53;;;17.70;99.90;;;;;;5032907;28;20052;-68
2021/08/19 02:35:28;;;;;;;5.15;2.83;;;17.70;99.90;;;;;;5033113;28;20112;-68
2021/08/19 02:37:56;;;;;;;6.53;2.95;;;17.70;99.90;;;;;;5033120;28;20504;-68
2021/08/19 02:40:23;;;;;;;4.40;2.88;;;17.70;99.90;;;;;;5047944;28;20030;-68
2021/08/19 02:42:50;;;;;;;6.95;3.45;;;17.70;99.90;;;;;;5032986;28;20057;-68
2021/08/19 02:45:16;;;;;;;5.80;3.42;;;17.70;99.90;;;;;;5032468;28;20049;-68
2021/08/19 02:47:42;;;;;;;5.35;3.17;;;17.70;99.90;;;;;;5032590;28;20069;-68
2021/08/19 02:50:08;;;;;;;7.97;3.13;;;17.60;99.90;;;;;;5048080;28;20070;-68
2021/08/19 02:52:34;;;;;;;6.63;3.60;;;17.70;99.90;;;;;;5032452;28;20033;-68
2021/08/19 02:55:00;;;;;;;5.10;2.72;;;17.70;99.90;;;;;;5047763;28;20040;-68
2021/08/19 02:57:26;;;;;;;4.22;2.80;;;17.70;99.90;;;;;;5032788;28;20367;-68
2021/08/19 02:59:52;;;;;;;4.75;3.13;;;17.70;99.90;;;;;;5032328;28;20551;-68
2021/08/19 03:02:18;;;;;;;5.55;3.40;;;17.70;99.90;;;;;;5032508;28;20041;-68
2021/08/19 03:04:43;;;;;;;5.72;3.20;;;17.70;99.90;;;;;;5030942;28;20025;-68
2021/08/19 03:07:11;;;;;;;5.63;3.40;;;17.70;99.90;;;;;;5047709;28;20032;-68
2021/08/19 03:09:38;;;;;;;5.60;3.25;;;17.70;99.90;;;;;;5047412;28;20036;-68
2021/08/19 03:12:04;;;;;;;8.35;4.32;;;17.70;99.90;;;;;;5032302;28;20033;-68
2021/08/19 03:14:31;;;;;;;4.57;2.92;;;17.80;99.90;;;;;;5032012;28;20025;-70
2021/08/19 03:16:58;;;;;;;4.40;2.90;;;17.70;99.90;;;;;;5032534;28;20033;-68
2021/08/19 03:19:23;;;;;;;4.22;2.92;;;17.80;99.90;;;;;;5047732;28;20378;-68
2021/08/19 03:21:49;;;;;;;5.70;2.97;;;17.70;99.90;;;;;;5047844;28;20027;-68
2021/08/19 03:24:15;;;;;;;4.97;3.05;;;17.70;99.90;;;;;;5032031;28;20033;-68
2021/08/19 03:26:41;;;;;;;3.88;2.97;;;17.70;99.90;;;;;;5030707;28;20080;-68
2021/08/19 03:29:07;;;;;;;4.13;2.63;;;17.60;99.90;;;;;;5047652;28;20091;-68
2021/08/19 03:31:33;;;;;;;6.13;2.42;;;17.60;99.90;;;;;;5054279;28;20079;-68
2021/08/19 03:33:59;;;;;;;4.50;3.00;;;17.70;99.90;;;;;;5037631;28;20033;-68
2021/08/19 03:36:25;;;;;;;4.03;2.72;;;17.60;99.90;;;;;;5038481;28;20033;-68
2021/08/19 03:38:52;;;;;;;5.05;3.40;;;17.60;99.90;;;;;;5038905;28;20112;-68
2021/08/19 03:41:18;;;;;;;5.00;2.90;;;17.60;99.90;;;;;;5053960;28;20371;-68
2021/08/19 03:43:45;;;;;;;7.13;3.03;;;17.60;99.90;;;;;;5038291;28;20041;-68
2021/08/19 03:46:12;;;;;;;5.50;3.33;;;17.50;99.90;;;;;;5033740;28;20545;-68
2021/08/19 03:48:38;;;;;;;5.10;3.15;;;17.60;99.90;;;;;;5024703;28;20038;-68
2021/08/19 03:51:04;;;;;;;5.85;2.90;;;17.60;99.90;;;;;;5017308;28;20121;-69
2021/08/19 03:53:30;;;;;;;3.75;2.78;;;17.50;99.90;;;;;;5018808;28;20026;-70
2021/08/19 03:55:56;;;;;;;3.75;2.72;;;17.60;99.90;;;;;;5033840;28;20033;-68
2021/08/19 03:58:21;;;;;;;4.57;3.10;;;17.60;99.90;;;;;;5036927;28;20060;-68
2021/08/19 04:00:50;;;;;;;5.15;3.20;;;17.50;99.90;;;;;;5038560;28;20034;-68
2021/08/19 04:03:16;;;;;;;6.07;3.10;;;17.50;99.90;;;;;;5037053;28;20387;-69
2021/08/19 04:05:42;;;;;;;4.50;3.10;;;17.50;99.90;;;;;;5036940;28;20029;-69
2021/08/19 04:08:08;;;;;;;4.45;3.13;;;17.50;99.90;;;;;;5038075;28;20047;-70
2021/08/19 04:10:34;;;;;;;6.15;3.95;;;17.50;99.90;;;;;;5037590;28;20709;-69
2021/08/19 04:13:00;;;;;;;5.88;3.08;;;17.50;99.90;;;;;;5037814;28;20462;-68
2021/08/19 04:15:26;;;;;;;5.15;2.90;;;17.50;99.90;;;;;;5037364;28;20538;-68
2021/08/19 04:17:52;;;;;;;5.03;3.10;;;17.50;99.90;;;;;;5056075;28;20047;-67
2021/08/19 04:20:19;;;;;;;4.32;2.90;;;17.40;99.90;;;;;;5057800;28;20473;-67
2021/08/19 04:22:46;;;;;;;5.57;3.47;;;17.50;99.90;;;;;;5058165;28;20044;-68
2021/08/19 04:25:13;;;;;;;4.30;2.97;;;17.50;99.90;;;;;;5058044;28;20120;-66
2021/08/19 04:27:39;;;;;;;6.22;3.33;;;17.50;99.90;;;;;;5057210;28;20117;-67
2021/08/19 04:30:07;;;;;;;5.88;3.97;;;17.50;99.90;;;;;;5058030;28;20489;-68
2021/08/19 04:32:33;;;;;;;8.40;3.80;;;17.50;99.90;;;;;;5056674;28;20436;-68
2021/08/19 04:34:59;;;;;;;5.13;3.20;;;17.50;99.90;;;;;;5058307;28;20477;-68
2021/08/19 04:37:25;;;;;;;5.35;3.58;;;17.50;99.90;;;;;;5056909;28;20119;-68
2021/08/19 04:39:51;;;;;;;4.85;3.35;;;17.60;99.90;;;;;;5056659;28;20421;-68
2021/08/19 04:42:20;;;;;;;5.88;3.50;;;17.50;99.90;;;;;;5054640;28;20534;-67
2021/08/19 04:44:46;;;;;;;5.25;3.28;;;17.40;99.90;;;;;;5037023;28;20032;-66
2021/08/19 04:47:11;;;;;;;4.30;3.00;;;17.50;99.90;;;;;;5041554;28;20037;-66
2021/08/19 04:49:37;;;;;;;5.47;3.03;;;17.60;99.90;;;;;;5017153;28;20505;-67
2021/08/19 04:52:04;;;;;;;5.85;3.17;;;17.50;99.90;;;;;;5035007;28;20092;-67
2021/08/19 04:54:29;;;;;;;6.07;3.20;;;17.60;99.90;;;;;;5034921;28;20036;-66
2021/08/19 04:56:55;;;;;;;6.30;2.63;;;17.50;99.90;;;;;;5033614;28;20037;-66
2021/08/19 04:59:21;;;;;;;5.38;3.20;;;17.50;99.90;;;;;;5034797;28;20036;-66
2021/08/19 05:01:48;;;;;;;4.20;2.63;;;17.60;99.90;;;;;;5033585;28;20033;-66
2021/08/19 05:04:14;;;;;;;5.88;3.25;;;17.60;99.90;;;;;;5033549;28;20382;-66
2021/08/19 05:06:39;;;;;;;4.68;2.55;;;17.60;99.90;;;;;;5034665;28;20033;-67
2021/08/19 05:09:06;;;;;;;4.97;3.00;;;17.60;99.90;;;;;;5034735;28;20026;-67
2021/08/19 05:11:33;;;;;;;6.15;2.92;;;17.60;99.90;;;;;;5033025;28;20421;-66
2021/08/19 05:14:00;;;;;;;4.60;3.05;;;17.50;99.90;;;;;;5033281;28;20030;-66
2021/08/19 05:16:27;;;;;;;4.75;2.72;;;17.60;99.90;;;;;;5029127;28;20046;-66
2021/08/19 05:18:54;;;;;;;6.78;2.45;;;17.60;99.90;;;;;;5030105;28;20038;-66
2021/08/19 05:21:20;;;;;;;5.38;2.55;;;17.50;99.90;;;;;;5028881;28;20556;-66
2021/08/19 05:23:45;;;;;;;6.20;2.88;;;17.60;99.90;;;;;;5012600;28;20034;-66
2021/08/19 05:26:11;;;;;;;4.60;2.78;;;17.60;99.90;;;;;;5012756;28;20049;-65
2021/08/19 05:28:37;;;;;;;3.88;2.75;;;17.60;99.90;;;;;;5013218;28;20414;-65
2021/08/19 05:31:03;;;;;;;5.15;2.92;;;17.70;99.90;;;;;;5013290;28;20033;-65
2021/08/19 05:33:29;;;;;;;5.68;3.00;;;17.70;99.90;;;;;;5013486;28;20033;-65
2021/08/19 05:35:55;;;;;;;4.63;3.42;;;17.70;99.90;;;;;;5029033;28;20064;-65
2021/08/19 05:38:21;;;;;;;4.22;3.00;;;17.70;99.90;;;;;;5013021;28;20394;-66
2021/08/19 05:40:47;;;;;;;4.75;2.75;;;17.70;99.90;;;;;;5014029;28;20037;-66
2021/08/19 05:43:13;;;;;;;7.68;3.08;;;17.70;99.90;;;;;;5013925;28;20041;-66
2021/08/19 05:45:41;;;;;;;5.13;2.88;;;17.80;99.90;;;;;;5029205;28;20139;-66
2021/08/19 05:48:06;;;;;;;5.15;2.90;;;17.70;99.90;;;;;;5022481;28;20033;-66
2021/08/19 05:50:33;;;;;;;5.32;2.97;;;17.80;99.90;;;;;;5032381;28;20025;-66
2021/08/19 05:53:03;;;;;;;5.05;3.08;;;17.80;99.90;;;;;;5032322;28;20386;-66
2021/08/19 05:55:29;;;;;;;4.63;3.05;;;17.80;99.90;;;;;;5032261;28;20482;-66
2021/08/19 05:57:55;;;;;;;4.13;2.67;;;17.70;99.90;;;;;;5033407;28;20048;-66
2021/08/19 06:00:22;;;;;;;4.90;3.13;;;17.70;99.90;;;;;;5033571;28;20427;-66
2021/08/19 06:02:51;;;;;;;3.97;2.65;;;17.80;99.90;;;;;;5032125;28;20033;-66
2021/08/19 06:05:18;;;;;;;3.50;2.53;;;17.80;99.90;;;;;;5031738;28;20445;-66
2021/08/19 06:07:45;;;;;;;5.28;2.70;;;17.80;99.90;;;;;;5032984;28;20026;-65
2021/08/19 06:10:13;;;;;;;6.75;4.05;;;17.80;99.90;;;;;;5015679;28;20026;-67
2021/08/19 06:12:39;;;;;;;3.72;2.75;;;17.70;99.90;;;;;;5033071;28;20517;-65
2021/08/19 06:15:07;;;;;;;6.10;2.30;;;17.80;99.90;;;;;;5033200;28;20045;-65
2021/08/19 06:17:33;;;;;;;4.22;2.58;;;17.90;99.90;;;;;;5033062;28;20037;-65
2021/08/19 06:20:00;;;;;;;3.53;2.50;;;17.80;99.90;;;;;;5033187;28;20040;-66
2021/08/19 06:22:26;;;;;;;6.15;3.30;;;17.90;99.90;;;;;;5031816;28;20029;-66
2021/08/19 06:24:51;;;;;;;5.03;2.58;;;17.80;99.90;;;;;;5031829;28;20040;-65
2021/08/19 06:27:18;;;;;;;3.95;2.40;;;17.90;99.90;;;;;;5031276;28;20398;-65
2021/08/19 06:29:43;;;;;;;5.03;2.28;;;17.90;99.90;;;;;;5032924;28;20425;-67
2021/08/19 06:32:09;;;;;;;3.60;2.28;;;17.90;99.90;;;;;;5032656;28;20037;-67
2021/08/19 06:34:35;;;;;;;4.47;2.13;;;17.90;99.90;;;;;;5024513;28;20029;-67
2021/08/19 06:37:03;;;;;;;3.72;2.50;;;17.90;99.90;;;;;;5024707;28;20124;-67
2021/08/19 06:39:29;;;;;;;6.20;2.38;;;18.00;99.90;;;;;;5048101;28;20055;-68
2021/08/19 06:41:54;;;;;;;5.25;2.60;;;18.00;99.90;;;;;;5032700;28;20037;-67
2021/08/19 06:44:20;;;;;;;5.15;2.38;;;18.00;99.90;;;;;;5031647;28;20069;-67
2021/08/19 06:46:46;;;;;;;5.28;2.92;;;18.10;99.90;;;;;;5047611;28;20045;-67
2021/08/19 06:49:12;;;;;;;5.00;2.17;;;18.10;99.90;;;;;;5032688;28;20026;-67
2021/08/19 06:51:38;;;;;;;4.40;2.20;;;18.10;99.90;;;;;;5032300;28;20104;-67
2021/08/19 06:54:04;;;;;;;3.55;1.85;;;18.20;99.90;;;;;;5031361;28;20537;-67
2021/08/19 06:56:30;;;;;;;2.97;1.60;;;18.20;99.90;;;;;;5032209;28;20115;-67
2021/08/19 06:58:56;;;;;;;3.55;1.77;;;18.30;99.90;;;;;;5032739;28;20033;-67
2021/08/19 07:01:22;;;;;;;2.55;1.70;;;18.30;99.90;;;;;;5031242;28;20532;-67
2021/08/19 07:03:48;;;;;;;11.05;3.33;;;18.30;99.90;;;;;;5032050;28;20454;-67
2021/08/19 07:06:15;;;;;;;6.47;2.15;;;18.30;99.90;;;;;;5032005;28;20033;-67
2021/08/19 07:08:42;;;;;;;3.38;1.80;;;18.40;99.90;;;;;;5031044;28;20381;-67
2021/08/19 07:11:09;;;;;;;3.22;1.90;;;18.50;99.90;;;;;;5047808;28;20040;-67
2021/08/19 07:13:35;;;;;;;2.92;1.70;;;18.60;99.90;;;;;;5047163;28;20369;-67
2021/08/19 07:16:02;;;;;;;3.30;2.13;;;18.60;99.90;;;;;;5032089;28;20103;-67
2021/08/19 07:18:28;;;;;;;3.80;1.83;;;18.50;99.90;;;;;;5047332;28;20038;-67
2021/08/19 07:20:53;;;;;;;5.03;2.28;;;18.60;99.90;;;;;;5032120;28;20052;-67
2021/08/19 07:23:19;;;;;;;2.65;1.65;;;18.70;99.90;;;;;;5047542;28;20036;-67
2021/08/19 07:25:45;;;;;;;6.53;2.00;;;18.60;99.90;;;;;;5032096;28;20033;-67
2021/08/19 07:28:11;;;;;;;2.58;1.60;;;18.60;99.90;;;;;;5047501;28;20036;-67
2021/08/19 07:30:38;;;;;;;4.05;2.20;;;18.40;99.90;;;;;;5047611;28;20021;-67
2021/08/19 07:33:05;;;;;;;3.97;2.05;;;18.70;99.90;;;;;;5031962;28;20052;-67
2021/08/19 07:35:31;;;;;;;3.45;1.63;;;18.70;99.90;;;;;;5047275;28;20474;-67
2021/08/19 07:37:57;;;;;;;3.13;1.77;;;18.80;99.90;;;;;;5032078;28;20079;-66
2021/08/19 07:40:27;;;;;;;2.70;1.65;;;18.80;99.90;;;;;;5031773;28;20402;-67
2021/08/19 07:42:54;;;;;;;3.20;1.67;;;18.80;99.90;;;;;;5047037;28;20410;-66
2021/08/19 07:45:22;;;;;;;2.50;1.55;;;18.90;99.90;;;;;;5049509;28;20029;-70
2021/08/19 07:47:48;;;;;;;3.20;1.90;;;18.80;99.90;;;;;;5011829;28;20038;-63
2021/08/19 07:50:15;;;;;;;3.92;1.85;;;18.90;99.90;;;;;;5010997;28;20030;-66
2021/08/19 07:52:41;;;;;;;4.63;2.10;;;19.00;99.90;;;;;;5012049;28;20395;-67
2021/08/19 07:55:10;;;;;;;3.95;1.88;;;18.90;99.90;;;;;;5012299;28;20113;-67
2021/08/19 07:57:48;;;;;;;2.95;1.42;;;19.00;99.90;;;;;;5011778;28;20388;-66
2021/08/19 08:00:26;;;;;;;2.50;1.70;;;19.10;99.90;;;;;;5012699;28;20390;-66
2021/08/19 08:02:53;;;;;;;4.05;1.73;;;19.00;99.90;;;;;;5011992;28;20025;-67
2021/08/19 08:05:20;;;;;;;2.58;1.70;;;19.00;99.90;;;;;;5011664;28;20438;-65
2021/08/19 08:07:46;;;;;;;2.58;1.60;;;18.90;99.90;;;;;;5012216;28;20030;-65
2021/08/19 08:10:13;;;;;;;3.85;2.13;;;18.90;99.90;;;;;;5011947;28;20092;-65
2021/08/19 08:12:39;;;;;;;3.80;1.42;;;19.10;99.90;;;;;;5011611;28;20038;-65
2021/08/19 08:15:07;;;;;;;4.22;2.35;;;19.20;99.90;;;;;;5011899;28;20092;-66
2021/08/19 08:17:34;;;;;;;3.83;2.15;;;19.00;99.90;;;;;;5013518;28;20064;-66
2021/08/19 08:20:00;;;;;;;3.00;1.70;;;19.20;99.90;;;;;;5015930;28;20065;-66
2021/08/19 08:22:26;;;;;;;3.33;1.50;;;19.40;99.90;;;;;;5015494;28;20037;-65
2021/08/19 08:24:52;;;;;;;5.40;1.50;;;19.50;99.90;;;;;;5014388;28;20113;-66
2021/08/19 08:27:18;;;;;;;4.80;2.30;;;19.50;99.90;;;;;;5015327;28;20030;-65
2021/08/19 08:29:44;;;;;;;2.58;1.45;;;19.50;99.90;;;;;;5015156;28;20056;-66
2021/08/19 08:32:10;;;;;;;3.25;1.27;;;19.70;99.90;;;;;;5014112;28;20037;-65
2021/08/19 08:34:38;;;;;;;2.50;1.30;;;19.70;99.90;;;;;;5013851;28;20042;-66
2021/08/19 08:37:05;;;;;;;3.90;1.70;;;19.60;99.90;;;;;;5015054;28;20117;-65
2021/08/19 08:39:33;;;;;;;4.13;2.45;;;19.50;99.90;;;;;;5015096;28;20044;-65
2021/08/19 08:42:00;;;;;;;2.80;1.42;;;19.10;99.90;;;;;;5015154;28;20509;-65
2021/08/19 08:44:29;;;;;;;5.30;1.90;;;19.10;99.90;;;;;;5015192;28;20105;-66
2021/08/19 08:46:56;;;;;;;3.15;1.70;;;19.10;99.90;;;;;;5013609;28;20391;-66
2021/08/19 08:49:23;;;;;;;2.38;1.42;;;18.90;99.90;;;;;;5013584;28;20079;-66
2021/08/19 08:51:52;;;;;;;3.50;1.85;;;18.90;99.90;;;;;;5014941;28;20105;-67
2021/08/19 08:54:22;;;;;;;3.83;2.05;;;18.90;99.90;;;;;;4998008;28;20033;-66
2021/08/19 08:56:49;;;;;;;3.67;2.07;;;19.00;99.90;;;;;;5015070;28;20181;-65
2021/08/19 08:59:15;;;;;;;3.88;2.20;;;19.10;99.90;;;;;;5015047;28;20089;-65
2021/08/19 09:01:40;;;;;;;3.88;2.25;;;19.20;99.90;;;;;;5014704;28;20757;-66
2021/08/19 09:04:06;;;;;;;3.78;2.60;;;19.30;99.90;;;;;;5013471;28;20497;-65
2021/08/19 09:06:39;;;;;;;4.32;2.50;;;19.30;99.90;;;;;;5013569;28;20609;-66
2021/08/19 09:09:16;;;;;;;4.57;2.53;;;19.50;99.90;;;;;;5014887;28;20038;-66
2021/08/19 09:11:51;;;;;;;3.47;2.25;;;19.60;99.90;;;;;;5014322;28;20033;-66
2021/08/19 09:14:23;;;;;;;4.47;2.20;;;19.60;99.90;;;;;;5013745;28;20030;-65
2021/08/19 09:16:50;;;;;;;4.03;2.60;;;19.50;99.90;;;;;;5012999;28;20037;-65
2021/08/19 09:19:21;;;;;;;4.80;2.83;;;19.80;99.90;;;;;;5014690;28;20054;-66
2021/08/19 09:21:54;;;;;;;3.85;2.55;;;19.90;99.90;;;;;;5014503;28;20479;-66
2021/08/19 09:24:25;;;;;;;4.05;2.70;;;19.90;99.90;;;;;;5014304;28;20026;-66
2021/08/19 09:26:53;;;;;;;5.88;3.15;;;20.00;99.90;;;;;;5014382;28;20034;-66
2021/08/19 09:29:30;;;;;;;5.90;2.80;;;20.00;99.90;;;;;;5012900;28;20034;-66
2021/08/19 09:32:10;;;;;;;5.18;2.90;;;20.20;99.90;;;;;;5014532;28;20026;-66
2021/08/19 09:34:38;;;;;;;5.53;3.30;;;20.20;99.90;;;;;;5013947;28;20482;-66
2021/08/19 09:37:18;;;;;;;4.55;3.20;;;20.30;99.90;;;;;;5014330;28;20734;-65
2021/08/19 09:39:57;;;;;;;4.00;2.40;;;20.60;99.90;;;;;;5049481;28;20029;-65
2021/08/19 09:42:38;;;;;;;4.72;2.95;;;20.70;99.90;;;;;;5054047;28;20035;-66
2021/08/19 09:45:22;;;;;;;4.68;2.67;;;20.80;99.90;;;;;;5052785;28;20052;-66
2021/08/19 09:47:50;;;;;;;7.75;2.80;;;20.80;99.90;;;;;;5053712;28;20033;-66
2021/08/19 09:50:17;;;;;;;4.90;2.83;;;20.80;99.90;;;;;;5053565;28;20029;-66
2021/08/19 09:52:46;;;;;;;5.75;2.85;;;20.90;99.90;;;;;;5053460;28;20401;-66
2021/08/19 09:55:29;;;;;;;5.72;2.80;;;20.90;99.90;;;;;;5053859;28;20059;-66
2021/08/19 09:57:57;;;;;;;5.88;3.20;;;20.90;99.90;;;;;;5053795;28;20029;-66
2021/08/19 10:00:38;;;;;;;4.97;2.90;;;21.00;99.90;;;;;;5052326;28;20461;-66
2021/08/19 10:03:04;;;;;;;4.50;2.85;;;20.80;99.90;;;;;;5053622;28;20423;-66
2021/08/19 10:05:30;;;;;;;6.03;2.97;;;21.10;99.90;;;;;;5052096;28;20033;-66
2021/08/19 10:08:01;;;;;;;7.40;3.88;;;21.00;99.90;;;;;;5052119;28;20029;-66
2021/08/19 10:10:28;;;;;;;3.97;2.70;;;21.20;99.90;;;;;;5051686;28;20037;-66
2021/08/19 10:13:01;;;;;;;5.93;2.75;;;21.20;99.90;;;;;;5052367;28;20055;-66
2021/08/19 10:15:28;;;;;;;4.43;2.90;;;21.20;99.90;;;;;;5052805;28;20040;-66
2021/08/19 10:17:58;;;;;;;5.00;2.85;;;21.10;99.90;;;;;;5052138;28;20060;-66
2021/08/19 10:20:42;;;;;;;4.95;3.30;;;21.00;99.90;;;;;;5053329;28;20037;-67
2021/08/19 10:23:12;;;;;;;4.65;2.72;;;21.00;99.90;;;;;;5052111;28;20048;-66
2021/08/19 10:25:38;;;;;;;4.80;2.97;;;20.90;99.90;;;;;;5053026;28;20124;-66
2021/08/19 10:28:14;;;;;;;5.72;3.20;;;20.90;99.90;;;;;;5030563;28;20076;-67
2021/08/19 10:30:56;;;;;;;5.80;3.35;;;20.80;99.90;;;;;;5013031;28;20041;-66
2021/08/19 10:33:37;;;;;;;5.40;3.20;;;20.70;99.90;;;;;;5013128;28;20379;-65
2021/08/19 10:36:11;;;;;;;9.60;3.72;;;20.40;99.90;;;;;;5012948;28;20041;-66
2021/08/19 10:38:42;;;;;;;4.80;3.05;;;20.30;99.90;;;;;;5013055;28;20038;-67
2021/08/19 10:41:29;;;;;;;5.97;3.78;;;20.40;99.90;;;;;;5027951;28;20037;-67
2021/08/19 10:44:09;;;;;;;5.22;2.75;;;20.50;99.90;;;;;;5013099;28;20406;-67
2021/08/19 10:46:50;;;;;;;7.43;3.70;;;20.60;99.90;;;;;;5027765;28;20048;-66
2021/08/19 10:49:37;;;;;;;5.03;2.85;;;20.70;99.90;;;;;;5013087;28;20066;-66
2021/08/19 10:52:09;;;;;;;7.03;3.17;;;20.60;99.90;;;;;;5028064;28;20105;-66
2021/08/19 10:54:47;;;;;;;7.32;3.13;;;20.60;99.90;;;;;;5012798;28;20037;-67
2021/08/19 10:57:25;;;;;;;8.63;3.08;;;20.60;99.90;;;;;;5012629;28;20498;-66
2021/08/19 11:00:11;;;;;;;5.65;2.67;;;20.70;99.90;;;;;;5012446;28;20041;-66
2021/08/19 11:02:40;;;;;;;6.05;2.90;;;20.70;99.90;;;;;;5012517;28;20443;-66
2021/08/19 11:05:10;;;;;;;4.25;2.92;;;20.50;99.90;;;;;;5027767;28;20025;-66
2021/08/19 11:07:48;;;;;;;5.55;3.03;;;20.40;99.90;;;;;;5012439;28;20581;-67
2021/08/19 11:10:27;;;;;;;4.32;2.25;;;20.30;99.90;;;;;;5027775;28;20026;-67
2021/08/19 11:13:15;;;;;;;3.17;2.20;;;20.40;99.90;;;;;;5011660;28;20029;-67
2021/08/19 11:15:49;;;;;;;3.28;2.20;;;20.40;99.90;;;;;;5012370;28;20088;-66
2021/08/19 11:18:31;;;;;;;4.15;2.60;;;20.50;99.90;;;;;;5012545;28;20034;-67
2021/08/19 11:20:57;;;;;;;3.88;2.10;;;20.50;99.90;;;;;;5026975;28;20032;-67
2021/08/19 11:23:30;;;;;;;3.80;2.28;;;20.60;99.90;;;;;;5027919;28;20026;-67
2021/08/19 11:26:05;;;;;;;3.83;2.38;;;20.70;99.90;;;;;;5010863;28;20052;-67
2021/08/19 11:28:40;;;;;;;8.15;2.35;;;21.00;99.90;;;;;;5027169;28;20029;-67
2021/08/19 11:31:19;;;;;;;4.75;2.15;;;21.20;99.90;;;;;;5027088;28;20033;-67
2021/08/19 11:33:47;;;;;;;4.28;2.55;;;21.50;99.90;;;;;;5027440;28;20038;-67
2021/08/19 11:36:15;;;;;;;5.88;1.98;;;21.50;99.90;;;;;;5012342;28;20083;-67
2021/08/19 11:38:42;;;;;;;4.05;2.35;;;21.90;99.90;;;;;;5027485;28;20072;-66
2021/08/19 11:41:19;;;;;;;4.65;2.15;;;21.90;99.90;;;;;;5012130;28;20036;-67
2021/08/19 11:43:45;;;;;;;3.15;2.10;;;21.90;99.90;;;;;;5033008;28;20040;-67
2021/08/19 11:46:24;;;;;;;5.13;2.00;;;22.10;99.90;;;;;;5030263;28;20038;-67
2021/08/19 11:49:11;;;;;;;4.53;2.13;;;22.30;99.90;;;;;;5031430;28;20111;-67
2021/08/19 11:51:41;;;;;;;4.93;1.88;;;22.30;99.90;;;;;;5033700;28;20043;-67
2021/08/19 11:54:15;;;;;;;4.40;2.20;;;22.20;99.90;;;;;;5035922;28;20108;-67
2021/08/19 11:56:46;;;;;;;3.78;2.08;;;21.90;99.90;;;;;;5035444;28;20029;-67
2021/08/19 11:59:15;;;;;;;2.70;1.60;;;21.70;99.90;;;;;;5018252;28;20053;-67
2021/08/19 12:01:52;;;;;;;2.42;1.58;;;21.70;99.90;;;;;;5034082;28;20029;-67
2021/08/19 12:04:31;;;;;;;3.83;1.60;;;21.50;99.90;;;;;;5035804;28;20041;-67
2021/08/19 12:07:04;;;;;;;4.78;1.98;;;21.70;99.90;;;;;;5035589;28;20109;-67
2021/08/19 12:09:34;;;;;;;4.97;2.17;;;21.50;99.90;;;;;;5035282;28;20097;-67
2021/08/19 12:12:05;;;;;;;2.92;1.80;;;21.80;99.90;;;;;;5034249;28;20033;-67
2021/08/19 12:14:31;;;;;;;4.53;2.15;;;22.00;99.90;;;;;;5035044;28;20034;-67
2021/08/19 12:16:57;;;;;;;5.30;2.30;;;22.00;99.90;;;;;;5033685;28;20049;-67
2021/08/19 12:19:28;;;;;;;3.78;2.42;;;22.10;99.90;;;;;;5035170;28;20052;-67
2021/08/19 12:21:59;;;;;;;4.57;2.63;;;22.30;99.90;;;;;;5033755;28;20105;-67
2021/08/19 12:24:40;;;;;;;4.00;3.03;;;22.30;99.90;;;;;;5033931;28;20029;-67
2021/08/19 12:27:21;;;;;;;5.40;3.15;;;22.50;99.90;;;;;;5035177;28;20065;-67
2021/08/19 12:29:50;;;;;;;5.68;3.42;;;22.80;99.90;;;;;;5035178;28;20121;-67
2021/08/19 12:32:28;;;;;;;4.68;2.90;;;23.10;99.90;;;;;;5035183;28;20041;-67
2021/08/19 12:35:10;;;;;;;4.47;2.45;;;23.20;99.90;;;;;;5034916;28;20064;-67
2021/08/19 12:37:39;;;;;;;5.90;2.90;;;23.30;99.90;;;;;;5033864;28;20037;-67
2021/08/19 12:40:15;;;;;;;4.25;2.67;;;23.70;99.90;;;;;;5035117;28;20029;-67
2021/08/19 12:42:46;;;;;;;4.13;2.40;;;23.90;99.90;;;;;;5033554;28;20026;-67
2021/08/19 12:45:30;;;;;;;;;;;24.20;99.90;;;;;;5017829;28;20042;-67
2021/08/19 12:48:08;;;;;;;4.03;2.40;;;24.30;99.90;;;;;;5034513;28;19913;-67
2021/08/19 12:50:37;;;;;;;3.53;2.38;;;24.00;99.90;;;;;;5034641;28;20548;-67
2021/08/19 12:53:10;;;;;;;3.80;2.40;;;23.70;99.90;;;;;;5034531;28;20045;-66
2021/08/19 12:55:40;;;;;;;7.72;2.47;;;23.20;99.90;;;;;;5017612;28;20037;-66
2021/08/19 12:58:07;;;;;;;5.25;2.35;;;22.80;99.90;;;;;;5033220;28;20033;-67